Time;durP1;ratioP1;P1;durP2;ratioP2;P2;SDS_P1;SDS_P2;PMS_P1;PMS_P2;Temp;Humidity;BMP_temperature;BMP_pressure;BME280_temperature;BME280_humidity;BME280_pressure;Samples;Min_cycle;Max_cycle;Signal;HPM_P1;HPM_P2
2023/09/18 00:01:11;;;;;;;5.10;3.17;;;;;;;;;;5029709;28;20477;-55
2023/09/18 00:03:38;;;;;;;3.80;2.20;;;;;;;;;;5029970;28;20478;-55
2023/09/18 00:06:06;;;;;;;4.17;2.37;;;;;;;;;;5029992;28;20462;-55
2023/09/18 00:08:34;;;;;;;3.87;2.90;;;;;;;;;;5029609;28;20450;-55
2023/09/18 00:11:02;;;;;;;6.77;2.50;;;;;;;;;;5029778;28;21011;-56
2023/09/18 00:13:29;;;;;;;3.17;2.30;;;;;;;;;;5030241;28;20442;-55
2023/09/18 00:15:59;;;;;;;3.93;2.50;;;;;;;;;;5029510;28;20542;-56
2023/09/18 00:18:26;;;;;;;4.13;2.93;;;;;;;;;;5030206;28;20446;-55
2023/09/18 00:20:54;;;;;;;2.70;2.23;;;;;;;;;;5029835;28;20469;-55
2023/09/18 00:23:21;;;;;;;2.70;2.10;;;;;;;;;;5030063;28;20466;-55
2023/09/18 00:25:50;;;;;;;4.23;2.87;;;;;;;;;;5029693;28;20477;-56
2023/09/18 00:28:17;;;;;;;4.10;2.80;;;;;;;;;;5028717;28;20516;-56
2023/09/18 00:30:48;;;;;;;3.77;2.70;;;;;;;;;;5029739;28;20542;-55
2023/09/18 00:33:16;;;;;;;3.97;2.60;;;;;;;;;;5030083;28;20446;-55
2023/09/18 00:35:46;;;;;;;5.73;3.40;;;;;;;;;;5029705;28;20469;-55
2023/09/18 00:38:14;;;;;;;4.77;2.77;;;;;;;;;;5029388;28;20449;-56
2023/09/18 00:40:41;;;;;;;3.77;2.67;;;;;;;;;;5030144;28;20434;-56
2023/09/18 00:43:10;;;;;;;3.20;2.90;;;;;;;;;;5029770;28;20446;-55
2023/09/18 00:45:39;;;;;;;4.50;3.10;;;;;;;;;;5029915;28;20450;-55
2023/09/18 00:48:07;;;;;;;3.13;2.37;;;;;;;;;;5029194;28;20521;-55
2023/09/18 00:50:34;;;;;;;5.50;2.80;;;;;;;;;;5029898;28;20450;-55
2023/09/18 00:53:02;;;;;;;3.53;2.33;;;;;;;;;;5029492;28;20481;-56
2023/09/18 00:55:30;;;;;;;7.70;2.73;;;;;;;;;;5028853;28;20465;-55
2023/09/18 00:57:58;;;;;;;3.63;2.10;;;;;;;;;;5029005;28;20466;-55
2023/09/18 01:00:26;;;;;;;3.80;2.50;;;;;;;;;;5029460;28;20485;-55
2023/09/18 01:02:54;;;;;;;4.47;3.97;;;;;;;;;;5028927;28;20450;-55
2023/09/18 01:05:21;;;;;;;4.77;2.80;;;;;;;;;;5029300;28;20960;-55
2023/09/18 01:07:48;;;;;;;5.40;3.03;;;;;;;;;;5028431;28;20517;-55
2023/09/18 01:10:16;;;;;;;3.20;2.10;;;;;;;;;;5029604;28;20446;-55
2023/09/18 01:12:46;;;;;;;3.83;2.90;;;;;;;;;;5031742;28;20442;-55
2023/09/18 01:15:16;;;;;;;7.10;2.73;;;;;;;;;;5032869;28;20457;-56
2023/09/18 01:17:46;;;;;;;4.00;2.20;;;;;;;;;;5032621;28;20493;-55
2023/09/18 01:20:13;;;;;;;4.03;2.90;;;;;;;;;;5032846;28;20929;-55
2023/09/18 01:22:43;;;;;;;4.37;2.70;;;;;;;;;;5033060;28;20524;-55
2023/09/18 01:25:10;;;;;;;5.57;2.90;;;;;;;;;;5032371;28;20457;-56
2023/09/18 01:27:37;;;;;;;4.37;2.90;;;;;;;;;;5032354;28;20581;-55
2023/09/18 01:30:05;;;;;;;6.10;3.00;;;;;;;;;;5032751;28;20496;-55
2023/09/18 01:32:34;;;;;;;3.77;2.23;;;;;;;;;;5032826;28;20474;-55
2023/09/18 01:35:03;;;;;;;4.80;2.80;;;;;;;;;;5032432;28;20462;-55
2023/09/18 01:37:31;;;;;;;6.30;2.70;;;;;;;;;;5031822;28;20474;-55
2023/09/18 01:40:00;;;;;;;4.17;3.13;;;;;;;;;;5032540;28;20520;-55
2023/09/18 01:42:28;;;;;;;4.80;2.60;;;;;;;;;;5032619;28;20543;-55
2023/09/18 01:44:55;;;;;;;4.30;2.53;;;;;;;;;;5032121;28;20485;-55
2023/09/18 01:47:24;;;;;;;4.80;3.03;;;;;;;;;;5031741;28;20522;-54
2023/09/18 01:49:51;;;;;;;5.23;2.40;;;;;;;;;;5031901;28;20530;-55
2023/09/18 01:52:18;;;;;;;4.80;2.70;;;;;;;;;;5032104;28;20532;-56
2023/09/18 01:54:46;;;;;;;5.43;3.00;;;;;;;;;;5032012;28;20885;-55
2023/09/18 01:57:14;;;;;;;4.57;3.17;;;;;;;;;;5031569;28;20525;-55
2023/09/18 01:59:43;;;;;;;5.53;2.07;;;;;;;;;;5032093;28;21007;-55
2023/09/18 02:02:11;;;;;;;4.63;3.00;;;;;;;;;;5032138;28;20529;-55
2023/09/18 02:04:39;;;;;;;3.13;2.23;;;;;;;;;;5032423;28;20893;-55
2023/09/18 02:07:07;;;;;;;3.37;2.67;;;;;;;;;;5032054;28;20954;-55
2023/09/18 02:09:34;;;;;;;5.17;2.93;;;;;;;;;;5031600;28;20541;-55
2023/09/18 02:12:02;;;;;;;3.40;2.73;;;;;;;;;;5031972;28;20442;-56
2023/09/18 02:14:31;;;;;;;4.87;2.80;;;;;;;;;;5031866;28;20461;-55
2023/09/18 02:16:58;;;;;;;4.03;2.47;;;;;;;;;;5031828;28;20466;-54
2023/09/18 02:19:26;;;;;;;3.83;2.37;;;;;;;;;;5031792;28;20500;-55
2023/09/18 02:21:53;;;;;;;3.60;2.60;;;;;;;;;;5031798;28;20454;-55
2023/09/18 02:24:20;;;;;;;6.07;2.83;;;;;;;;;;5031829;28;20473;-55
2023/09/18 02:26:47;;;;;;;5.80;2.83;;;;;;;;;;5030517;28;20532;-55
2023/09/18 02:29:15;;;;;;;4.33;3.13;;;;;;;;;;5031120;28;20486;-55
2023/09/18 02:31:43;;;;;;;7.30;3.20;;;;;;;;;;5031107;28;21003;-55
2023/09/18 02:34:10;;;;;;;5.33;3.13;;;;;;;;;;5031212;28;20474;-55
2023/09/18 02:36:38;;;;;;;4.17;2.40;;;;;;;;;;5031224;28;20831;-55
2023/09/18 02:39:05;;;;;;;7.13;2.50;;;;;;;;;;5029755;28;20474;-55
2023/09/18 02:41:32;;;;;;;5.03;3.00;;;;;;;;;;5030680;28;20477;-55
2023/09/18 02:44:00;;;;;;;5.80;2.80;;;;;;;;;;5030802;28;20548;-55
2023/09/18 02:46:27;;;;;;;6.97;2.70;;;;;;;;;;5031306;28;20520;-56
2023/09/18 02:48:55;;;;;;;6.27;3.43;;;;;;;;;;5030889;28;20884;-55
2023/09/18 02:51:23;;;;;;;5.13;2.93;;;;;;;;;;5031737;28;20894;-55
2023/09/18 02:53:50;;;;;;;4.50;2.77;;;;;;;;;;5030864;28;20496;-55
2023/09/18 02:56:18;;;;;;;4.60;3.00;;;;;;;;;;5030202;28;21008;-55
2023/09/18 02:58:45;;;;;;;5.37;3.00;;;;;;;;;;5031039;28;20498;-56
2023/09/18 03:01:12;;;;;;;5.77;2.80;;;;;;;;;;5024117;28;20501;-55
2023/09/18 03:03:41;;;;;;;4.47;2.40;;;;;;;;;;5031213;28;20473;-55
2023/09/18 03:06:10;;;;;;;5.10;2.73;;;;;;;;;;5031122;28;20466;-54
2023/09/18 03:08:38;;;;;;;3.80;2.63;;;;;;;;;;5030183;28;21069;-55
2023/09/18 03:11:12;;;;;;;5.20;2.47;;;;;;;;;;5030139;28;20447;-55
2023/09/18 03:13:39;;;;;;;4.30;3.10;;;;;;;;;;5027608;28;20462;-54
2023/09/18 03:16:06;;;;;;;3.70;2.73;;;;;;;;;;5030682;28;20490;-55
2023/09/18 03:18:34;;;;;;;3.67;2.73;;;;;;;;;;5029925;28;20921;-56
2023/09/18 03:21:02;;;;;;;6.13;3.30;;;;;;;;;;5029633;28;20474;-54
2023/09/18 03:23:30;;;;;;;9.90;3.50;;;;;;;;;;5028363;28;20512;-57
2023/09/18 03:25:59;;;;;;;3.83;2.70;;;;;;;;;;5028748;28;20544;-55
2023/09/18 03:28:26;;;;;;;4.80;3.10;;;;;;;;;;5028641;28;20482;-55
2023/09/18 03:30:54;;;;;;;6.90;4.80;;;;;;;;;;5029806;28;20988;-54
2023/09/18 03:33:21;;;;;;;4.90;3.23;;;;;;;;;;5029984;28;20492;-55
2023/09/18 03:35:49;;;;;;;4.50;3.40;;;;;;;;;;5029234;28;20482;-54
2023/09/18 03:38:17;;;;;;;6.67;3.90;;;;;;;;;;5030217;28;20537;-55
2023/09/18 03:40:45;;;;;;;5.07;3.07;;;;;;;;;;5030299;28;20565;-55
2023/09/18 03:43:13;;;;;;;6.60;2.83;;;;;;;;;;5030259;28;20442;-55
2023/09/18 03:45:40;;;;;;;6.53;2.77;;;;;;;;;;5030146;28;20928;-55
2023/09/18 03:48:08;;;;;;;4.00;3.20;;;;;;;;;;5057049;23;20497;-86
2023/09/18 03:50:35;;;;;;;5.20;2.83;;;;;;;;;;5032541;28;20497;-85
2023/09/18 03:53:02;;;;;;;7.53;3.07;;;;;;;;;;5031162;28;20442;-87
2023/09/18 03:55:30;;;;;;;5.70;2.70;;;;;;;;;;5031529;28;20516;-86
2023/09/18 03:57:58;;;;;;;6.10;2.90;;;;;;;;;;5031183;28;20548;-87
2023/09/18 04:00:26;;;;;;;5.17;2.50;;;;;;;;;;5032194;28;20857;-86
2023/09/18 04:02:53;;;;;;;6.10;3.90;;;;;;;;;;5057311;22;20537;-58
2023/09/18 04:05:20;;;;;;;4.03;2.60;;;;;;;;;;5050172;28;20955;-58
2023/09/18 04:07:47;;;;;;;6.93;3.10;;;;;;;;;;5049605;28;20512;-57
2023/09/18 04:10:19;;;;;;;6.10;3.33;;;;;;;;;;5050076;28;20534;-59
2023/09/18 04:12:47;;;;;;;4.80;3.37;;;;;;;;;;5049889;28;20449;-58
2023/09/18 04:15:17;;;;;;;7.60;3.80;;;;;;;;;;5049778;28;21086;-58
2023/09/18 04:17:44;;;;;;;5.67;3.40;;;;;;;;;;5049843;28;20889;-58
2023/09/18 04:20:12;;;;;;;4.80;3.03;;;;;;;;;;5050151;28;20859;-58
2023/09/18 04:22:49;;;;;;;7.10;3.50;;;;;;;;;;5050031;28;20448;-59
2023/09/18 04:25:16;;;;;;;7.87;3.70;;;;;;;;;;5050028;28;20441;-59
2023/09/18 04:27:44;;;;;;;6.30;3.40;;;;;;;;;;5049410;28;20517;-58
2023/09/18 04:30:11;;;;;;;10.50;3.50;;;;;;;;;;5049630;28;20472;-58
2023/09/18 04:32:40;;;;;;;5.73;3.63;;;;;;;;;;5049679;28;20664;-58
2023/09/18 04:35:08;;;;;;;6.23;3.73;;;;;;;;;;5049070;28;20887;-58
2023/09/18 04:37:38;;;;;;;5.47;2.93;;;;;;;;;;5049388;28;20523;-58
2023/09/18 04:40:09;;;;;;;9.13;4.73;;;;;;;;;;5049928;28;20544;-57
2023/09/18 04:42:36;;;;;;;10.30;4.03;;;;;;;;;;5049874;28;20935;-58
2023/09/18 04:45:04;;;;;;;8.70;3.77;;;;;;;;;;5049606;28;20468;-59
2023/09/18 04:47:31;;;;;;;6.90;3.60;;;;;;;;;;5053363;28;20975;-59
2023/09/18 04:50:00;;;;;;;6.23;3.17;;;;;;;;;;5053377;28;20445;-58
2023/09/18 04:52:27;;;;;;;7.10;3.70;;;;;;;;;;5052834;28;20507;-57
2023/09/18 04:54:55;;;;;;;6.93;4.80;;;;;;;;;;5053097;28;20593;-60
2023/09/18 04:57:23;;;;;;;8.03;4.10;;;;;;;;;;5053053;28;20461;-57
2023/09/18 04:59:50;;;;;;;7.07;3.97;;;;;;;;;;5053248;28;20441;-56
2023/09/18 05:02:17;;;;;;;4.97;3.13;;;;;;;;;;5052096;28;20469;-58
2023/09/18 05:04:45;;;;;;;8.13;3.30;;;;;;;;;;5053006;28;20465;-56
2023/09/18 05:07:13;;;;;;;5.80;3.70;;;;;;;;;;5052269;28;20469;-57
2023/09/18 05:09:40;;;;;;;7.60;4.50;;;;;;;;;;5052165;28;20489;-56
2023/09/18 05:12:13;;;;;;;10.00;4.90;;;;;;;;;;5052240;28;20476;-57
2023/09/18 05:14:40;;;;;;;6.13;3.80;;;;;;;;;;5052297;28;20444;-58
2023/09/18 05:17:08;;;;;;;11.20;4.73;;;;;;;;;;5051654;28;20477;-57
2023/09/18 05:19:35;;;;;;;6.10;3.60;;;;;;;;;;5052656;28;20490;-58
2023/09/18 05:22:02;;;;;;;6.30;3.20;;;;;;;;;;5052411;28;20469;-57
2023/09/18 05:24:31;;;;;;;7.93;4.03;;;;;;;;;;5052787;28;20445;-58
2023/09/18 05:26:58;;;;;;;7.07;3.97;;;;;;;;;;5052494;28;20485;-58
2023/09/18 05:29:26;;;;;;;6.77;3.50;;;;;;;;;;5052465;28;20499;-59
2023/09/18 05:31:53;;;;;;;8.53;4.77;;;;;;;;;;5052151;28;20923;-57
2023/09/18 05:34:20;;;;;;;6.00;3.20;;;;;;;;;;5052792;28;20476;-57
2023/09/18 05:36:48;;;;;;;6.27;3.50;;;;;;;;;;5052689;28;20461;-56
2023/09/18 05:39:16;;;;;;;5.93;3.60;;;;;;;;;;5052754;28;20452;-57
2023/09/18 05:41:45;;;;;;;8.20;3.77;;;;;;;;;;5052721;28;20531;-57
2023/09/18 05:44:12;;;;;;;8.33;3.77;;;;;;;;;;5052634;28;20477;-57
2023/09/18 05:46:40;;;;;;;6.47;3.40;;;;;;;;;;5052051;28;20500;-57
2023/09/18 05:49:08;;;;;;;8.10;3.60;;;;;;;;;;5051303;28;20560;-56
2023/09/18 05:51:35;;;;;;;6.93;3.30;;;;;;;;;;5052024;28;20503;-59
2023/09/18 05:54:02;;;;;;;6.20;3.57;;;;;;;;;;5052364;28;20787;-57
2023/09/18 05:56:30;;;;;;;7.23;3.80;;;;;;;;;;5052002;28;20555;-58
2023/09/18 05:58:58;;;;;;;12.37;4.30;;;;;;;;;;5050799;28;20959;-58
2023/09/18 06:01:26;;;;;;;5.93;4.33;;;;;;;;;;5052361;28;20453;-57
2023/09/18 06:03:53;;;;;;;9.73;4.57;;;;;;;;;;5050887;28;20527;-57
2023/09/18 06:06:20;;;;;;;7.30;4.80;;;;;;;;;;5050488;28;20932;-57
2023/09/18 06:08:47;;;;;;;9.90;4.07;;;;;;;;;;5050578;28;20517;-56
2023/09/18 06:11:14;;;;;;;8.33;4.23;;;;;;;;;;5050824;28;20473;-57
2023/09/18 06:13:42;;;;;;;9.10;4.60;;;;;;;;;;5050673;28;20442;-57
2023/09/18 06:16:10;;;;;;;9.90;4.60;;;;;;;;;;5050361;28;20441;-57
2023/09/18 06:18:38;;;;;;;6.33;3.47;;;;;;;;;;5051506;28;20473;-57
2023/09/18 06:21:06;;;;;;;10.10;3.97;;;;;;;;;;5051650;28;20891;-57
2023/09/18 06:23:33;;;;;;;7.20;4.40;;;;;;;;;;5052125;28;20441;-57
2023/09/18 06:26:01;;;;;;;8.20;4.53;;;;;;;;;;5051981;28;20940;-57
2023/09/18 06:28:28;;;;;;;8.13;4.00;;;;;;;;;;5051428;28;20488;-58
2023/09/18 06:30:56;;;;;;;7.10;3.90;;;;;;;;;;5051395;28;20480;-57
2023/09/18 06:33:24;;;;;;;10.87;4.80;;;;;;;;;;5051812;28;20507;-56
2023/09/18 06:35:52;;;;;;;12.53;4.73;;;;;;;;;;5051462;28;20523;-57
2023/09/18 06:38:20;;;;;;;8.70;4.10;;;;;;;;;;5051181;28;20553;-57
2023/09/18 06:40:48;;;;;;;12.50;4.73;;;;;;;;;;5051617;28;20445;-60
2023/09/18 06:43:15;;;;;;;8.07;4.60;;;;;;;;;;5051325;28;20917;-58
2023/09/18 06:45:42;;;;;;;6.37;3.60;;;;;;;;;;5051247;28;20495;-56
2023/09/18 06:48:09;;;;;;;10.23;3.80;;;;;;;;;;5050834;28;20493;-59
2023/09/18 06:50:39;;;;;;;7.10;4.73;;;;;;;;;;5051291;28;20469;-59
2023/09/18 06:53:06;;;;;;;11.10;4.57;;;;;;;;;;5051211;28;20445;-57
2023/09/18 06:55:34;;;;;;;9.73;5.00;;;;;;;;;;5051272;28;20522;-59
2023/09/18 06:58:01;;;;;;;11.97;8.00;;;;;;;;;;5050547;28;20497;-56
2023/09/18 07:00:28;;;;;;;11.17;6.53;;;;;;;;;;5051382;28;20473;-57
2023/09/18 07:02:55;;;;;;;8.93;4.57;;;;;;;;;;5050903;28;20882;-57
2023/09/18 07:05:23;;;;;;;9.50;4.90;;;;;;;;;;5050958;28;20446;-57
2023/09/18 07:07:52;;;;;;;6.47;4.70;;;;;;;;;;5050510;28;21013;-60
2023/09/18 07:10:19;;;;;;;8.27;4.87;;;;;;;;;;5049918;28;20599;-56
2023/09/18 07:12:46;;;;;;;8.13;4.60;;;;;;;;;;5051036;28;20716;-56
2023/09/18 07:15:13;;;;;;;7.70;5.00;;;;;;;;;;5051004;28;20862;-59
2023/09/18 07:17:41;;;;;;;8.77;5.00;;;;;;;;;;5050376;28;20497;-57
2023/09/18 07:20:13;;;;;;;8.63;4.73;;;;;;;;;;5050566;28;20446;-59
2023/09/18 07:22:41;;;;;;;8.30;4.40;;;;;;;;;;5050782;28;20552;-57
2023/09/18 07:25:10;;;;;;;7.80;5.07;;;;;;;;;;5050364;28;20524;-58
2023/09/18 07:27:38;;;;;;;6.03;4.00;;;;;;;;;;5050544;28;20526;-58
2023/09/18 07:30:06;;;;;;;6.83;3.80;;;;;;;;;;5050360;28;20488;-57
2023/09/18 07:32:33;;;;;;;11.37;5.17;;;;;;;;;;5050908;28;20495;-57
2023/09/18 07:35:01;;;;;;;9.57;4.87;;;;;;;;;;5050492;28;20856;-57
2023/09/18 07:37:28;;;;;;;8.80;5.00;;;;;;;;;;5050059;28;20493;-57
2023/09/18 07:39:55;;;;;;;7.63;4.53;;;;;;;;;;5050470;28;20513;-56
2023/09/18 07:42:27;;;;;;;10.00;4.70;;;;;;;;;;5050760;28;20448;-57
2023/09/18 07:44:54;;;;;;;9.07;5.57;;;;;;;;;;5050663;28;20445;-57
2023/09/18 07:47:22;;;;;;;13.50;4.77;;;;;;;;;;5050236;28;20469;-57
2023/09/18 07:49:50;;;;;;;7.93;4.50;;;;;;;;;;5049987;28;20539;-57
2023/09/18 07:52:17;;;;;;;10.23;5.37;;;;;;;;;;5050112;28;20515;-57
2023/09/18 07:54:44;;;;;;;12.57;4.13;;;;;;;;;;5050328;28;20445;-59
2023/09/18 07:57:12;;;;;;;6.50;4.10;;;;;;;;;;5050146;28;20555;-57
2023/09/18 07:59:42;;;;;;;8.97;4.00;;;;;;;;;;5050165;28;20469;-57
2023/09/18 08:02:10;;;;;;;7.77;4.27;;;;;;;;;;5049982;28;20449;-59
2023/09/18 08:04:37;;;;;;;5.50;3.60;;;;;;;;;;5049912;28;20517;-57
2023/09/18 08:07:05;;;;;;;10.00;4.67;;;;;;;;;;5049658;28;20516;-56
2023/09/18 08:09:36;;;;;;;12.10;5.00;;;;;;;;;;5049773;28;20492;-57
2023/09/18 08:12:03;;;;;;;5.80;4.17;;;;;;;;;;5049967;28;20444;-60
2023/09/18 08:14:30;;;;;;;13.03;4.10;;;;;;;;;;5050203;28;20503;-58
2023/09/18 08:16:59;;;;;;;9.07;4.10;;;;;;;;;;5049535;28;20464;-60
2023/09/18 08:19:27;;;;;;;8.73;5.27;;;;;;;;;;5050205;28;20867;-58
2023/09/18 08:21:55;;;;;;;11.40;5.07;;;;;;;;;;5053384;28;20452;-60
2023/09/18 08:24:23;;;;;;;7.97;4.83;;;;;;;;;;5054419;28;20530;-60
2023/09/18 08:26:50;;;;;;;7.93;5.47;;;;;;;;;;5053635;28;20461;-60
2023/09/18 08:29:18;;;;;;;10.83;4.30;;;;;;;;;;5053827;28;20822;-58
2023/09/18 08:31:45;;;;;;;8.10;4.07;;;;;;;;;;5053757;28;20531;-57
2023/09/18 08:34:14;;;;;;;8.47;4.70;;;;;;;;;;5054005;28;20494;-57
2023/09/18 08:36:41;;;;;;;13.40;4.43;;;;;;;;;;5053760;28;20465;-57
2023/09/18 08:39:08;;;;;;;11.70;4.60;;;;;;;;;;5053731;28;20552;-57
2023/09/18 08:41:39;;;;;;;10.00;4.20;;;;;;;;;;5053708;28;20831;-57
2023/09/18 08:44:09;;;;;;;7.40;3.80;;;;;;;;;;5053051;28;20940;-58
2023/09/18 08:46:37;;;;;;;9.00;4.27;;;;;;;;;;5053384;28;20472;-59
2023/09/18 08:49:06;;;;;;;7.93;4.47;;;;;;;;;;5053045;28;20512;-58
2023/09/18 08:51:35;;;;;;;8.40;5.10;;;;;;;;;;5053489;28;20532;-59
2023/09/18 08:54:03;;;;;;;14.57;6.27;;;;;;;;;;5053546;28;20804;-57
2023/09/18 08:56:30;;;;;;;9.40;4.53;;;;;;;;;;5053419;28;20465;-57
2023/09/18 08:58:59;;;;;;;10.43;5.07;;;;;;;;;;5053098;28;20449;-57
2023/09/18 09:01:26;;;;;;;9.77;5.13;;;;;;;;;;5053469;28;20468;-59
2023/09/18 09:03:55;;;;;;;10.37;4.60;;;;;;;;;;5053292;28;20445;-59
2023/09/18 09:06:22;;;;;;;6.80;4.03;;;;;;;;;;5052975;28;20855;-59
2023/09/18 09:08:51;;;;;;;7.57;4.87;;;;;;;;;;5053174;28;20587;-60
2023/09/18 09:11:19;;;;;;;8.33;4.70;;;;;;;;;;5053284;28;20445;-59
2023/09/18 09:13:47;;;;;;;5.73;3.83;;;;;;;;;;5053242;28;21011;-57
2023/09/18 09:16:14;;;;;;;9.10;4.60;;;;;;;;;;5053279;28;20475;-59
2023/09/18 09:18:49;;;;;;;6.87;4.40;;;;;;;;;;5052694;28;20468;-57
2023/09/18 09:21:16;;;;;;;5.63;4.30;;;;;;;;;;5053165;28;20468;-60
2023/09/18 09:23:49;;;;;;;12.70;5.00;;;;;;;;;;5053299;28;20441;-57
2023/09/18 09:26:18;;;;;;;11.43;4.90;;;;;;;;;;5052924;28;20548;-57
2023/09/18 09:28:45;;;;;;;11.20;5.20;;;;;;;;;;5052741;28;20445;-57
2023/09/18 09:31:13;;;;;;;8.43;4.87;;;;;;;;;;5052560;28;20566;-59
2023/09/18 09:33:52;;;;;;;9.13;5.17;;;;;;;;;;5052131;28;20524;-58
2023/09/18 09:36:19;;;;;;;7.90;4.33;;;;;;;;;;5052431;28;20441;-58
2023/09/18 09:38:46;;;;;;;10.10;5.30;;;;;;;;;;5052561;28;20433;-59
2023/09/18 09:41:15;;;;;;;12.87;4.57;;;;;;;;;;5052667;28;20483;-58
2023/09/18 09:43:45;;;;;;;5.97;4.50;;;;;;;;;;5052213;28;20800;-58
2023/09/18 09:46:16;;;;;;;9.63;4.90;;;;;;;;;;5052785;28;20447;-58
2023/09/18 09:51:20;;;;;;;7.80;5.10;;;;;;;;;;5030177;28;20493;-59
2023/09/18 09:53:50;;;;;;;10.47;5.43;;;;;;;;;;5032556;28;20538;-60
2023/09/18 09:56:21;;;;;;;8.73;4.53;;;;;;;;;;5032222;28;20446;-59
2023/09/18 09:59:07;;;;;;;10.23;4.70;;;;;;;;;;5032698;28;20466;-59
2023/09/18 10:01:35;;;;;;;10.03;4.03;;;;;;;;;;5032473;28;20537;-57
2023/09/18 10:04:07;;;;;;;7.40;3.90;;;;;;;;;;5032325;28;20525;-59
2023/09/18 10:06:36;;;;;;;6.57;4.00;;;;;;;;;;5032236;28;20469;-60
2023/09/18 10:09:05;;;;;;;6.00;3.97;;;;;;;;;;5031111;28;20462;-59
2023/09/18 10:11:33;;;;;;;8.60;4.40;;;;;;;;;;5031508;28;20482;-57
2023/09/18 10:14:02;;;;;;;8.50;3.93;;;;;;;;;;5031264;28;20481;-58
2023/09/18 10:16:32;;;;;;;12.40;4.60;;;;;;;;;;5028793;28;20811;-59
2023/09/18 10:19:04;;;;;;;6.70;3.97;;;;;;;;;;5031693;28;20458;-58
2023/09/18 10:21:35;;;;;;;7.60;4.13;;;;;;;;;;5029365;28;20465;-58
2023/09/18 10:24:06;;;;;;;8.07;3.83;;;;;;;;;;5031584;28;20446;-58
2023/09/18 10:26:38;;;;;;;6.80;4.40;;;;;;;;;;5029325;28;20537;-59
2023/09/18 10:29:08;;;;;;;7.60;4.70;;;;;;;;;;5030990;28;20434;-58
2023/09/18 10:31:39;;;;;;;6.73;4.30;;;;;;;;;;5031339;28;20853;-59
2023/09/18 10:34:06;;;;;;;7.20;4.30;;;;;;;;;;5030851;28;20945;-58
2023/09/18 10:36:35;;;;;;;11.50;6.77;;;;;;;;;;5031442;28;20481;-58
2023/09/18 10:39:08;;;;;;;7.33;3.80;;;;;;;;;;5030579;28;20431;-59
2023/09/18 10:41:35;;;;;;;8.23;4.17;;;;;;;;;;5031205;28;20431;-57
2023/09/18 10:44:04;;;;;;;6.83;4.00;;;;;;;;;;5031018;28;20924;-58
2023/09/18 10:46:32;;;;;;;11.40;4.80;;;;;;;;;;5028304;28;20485;-59
2023/09/18 10:49:01;;;;;;;7.33;4.27;;;;;;;;;;5029795;28;20520;-57
2023/09/18 10:51:29;;;;;;;5.87;4.27;;;;;;;;;;5030109;28;20509;-59
2023/09/18 10:53:58;;;;;;;12.13;4.80;;;;;;;;;;5031174;28;20478;-57
2023/09/18 10:56:26;;;;;;;11.10;4.97;;;;;;;;;;5031256;28;20442;-58
2023/09/18 10:58:57;;;;;;;8.77;3.90;;;;;;;;;;5030784;28;20494;-59
2023/09/18 11:01:27;;;;;;;12.50;4.90;;;;;;;;;;5031237;28;20485;-59
2023/09/18 11:03:54;;;;;;;7.43;3.70;;;;;;;;;;5030855;28;20991;-59
2023/09/18 11:06:26;;;;;;;9.60;4.73;;;;;;;;;;5031746;28;20441;-60
2023/09/18 11:09:01;;;;;;;8.57;5.23;;;;;;;;;;5030733;28;20498;-60
2023/09/18 11:11:29;;;;;;;10.07;4.53;;;;;;;;;;5031028;28;20560;-61
2023/09/18 11:13:57;;;;;;;7.27;4.70;;;;;;;;;;5030899;28;20450;-59
2023/09/18 11:16:39;;;;;;;8.40;4.00;;;;;;;;;;5030807;28;20446;-59
2023/09/18 11:19:10;;;;;;;9.03;4.17;;;;;;;;;;5030855;28;20549;-61
2023/09/18 11:21:39;;;;;;;8.67;4.03;;;;;;;;;;5031066;28;20485;-59
2023/09/18 11:24:11;;;;;;;8.30;4.73;;;;;;;;;;5030846;28;20477;-59
2023/09/18 11:26:38;;;;;;;7.40;3.90;;;;;;;;;;5030581;28;20474;-58
2023/09/18 11:29:08;;;;;;;9.13;4.50;;;;;;;;;;5030862;28;20521;-59
2023/09/18 11:31:47;;;;;;;8.87;4.30;;;;;;;;;;5030413;28;20909;-59
2023/09/18 11:34:15;;;;;;;10.87;4.40;;;;;;;;;;5030604;28;20450;-59
2023/09/18 11:36:44;;;;;;;8.27;5.20;;;;;;;;;;5030482;28;20458;-61
2023/09/18 11:39:12;;;;;;;12.90;5.10;;;;;;;;;;5030272;28;20532;-58
2023/09/18 11:41:39;;;;;;;9.30;4.67;;;;;;;;;;5030746;28;20447;-58
2023/09/18 11:44:25;;;;;;;16.30;4.63;;;;;;;;;;5030754;28;20874;-60
2023/09/18 11:46:53;;;;;;;9.00;5.07;;;;;;;;;;5030207;28;20500;-61
2023/09/18 11:49:21;;;;;;;11.90;4.40;;;;;;;;;;5030275;28;20516;-58
2023/09/18 11:51:51;;;;;;;16.57;4.87;;;;;;;;;;5030519;28;20478;-60
2023/09/18 11:54:19;;;;;;;7.30;5.50;;;;;;;;;;5030898;28;20441;-58
2023/09/18 11:56:46;;;;;;;8.03;4.83;;;;;;;;;;5029516;28;20450;-59
2023/09/18 11:59:13;;;;;;;7.83;4.87;;;;;;;;;;5030511;28;20466;-59
2023/09/18 12:01:41;;;;;;;10.20;6.00;;;;;;;;;;5030200;28;20790;-58
2023/09/18 12:04:09;;;;;;;14.03;4.90;;;;;;;;;;5030189;28;20477;-59
2023/09/18 12:06:36;;;;;;;12.80;4.60;;;;;;;;;;5030504;28;20525;-60
2023/09/18 12:09:05;;;;;;;12.03;4.73;;;;;;;;;;5030324;28;20537;-59
2023/09/18 12:11:34;;;;;;;12.10;5.50;;;;;;;;;;5030302;28;20513;-58
2023/09/18 12:14:02;;;;;;;8.13;4.60;;;;;;;;;;5030005;28;20533;-59
2023/09/18 12:16:29;;;;;;;11.17;4.50;;;;;;;;;;5029905;28;20504;-59
2023/09/18 12:18:57;;;;;;;11.83;5.30;;;;;;;;;;5029823;28;20493;-58
2023/09/18 12:21:25;;;;;;;14.73;4.93;;;;;;;;;;5030308;28;20480;-59
2023/09/18 12:23:52;;;;;;;10.60;4.97;;;;;;;;;;5030241;28;20470;-58
2023/09/18 12:26:20;;;;;;;9.33;4.73;;;;;;;;;;5030064;28;20469;-58
2023/09/18 12:28:49;;;;;;;9.03;5.40;;;;;;;;;;5029569;28;20501;-59
2023/09/18 12:31:16;;;;;;;12.70;5.43;;;;;;;;;;5030050;28;20551;-59
2023/09/18 12:33:46;;;;;;;12.43;6.23;;;;;;;;;;5029991;28;20960;-58
2023/09/18 12:36:14;;;;;;;9.23;4.53;;;;;;;;;;5030013;28;20817;-57
2023/09/18 12:38:41;;;;;;;7.70;4.53;;;;;;;;;;5029837;28;20470;-58
2023/09/18 12:41:09;;;;;;;13.93;5.00;;;;;;;;;;5029861;28;20459;-60
2023/09/18 12:43:39;;;;;;;10.73;5.63;;;;;;;;;;5029753;28;20442;-58
2023/09/18 12:46:07;;;;;;;11.20;5.10;;;;;;;;;;5029929;28;20474;-58
2023/09/18 12:48:38;;;;;;;9.60;5.03;;;;;;;;;;5029552;28;20469;-59
2023/09/18 12:51:05;;;;;;;10.60;4.90;;;;;;;;;;5030050;28;20517;-59
2023/09/18 12:53:33;;;;;;;11.20;5.23;;;;;;;;;;5029920;28;20474;-58
2023/09/18 12:56:07;;;;;;;12.57;5.47;;;;;;;;;;5029484;28;20508;-57
2023/09/18 12:58:34;;;;;;;8.70;5.00;;;;;;;;;;5029713;28;20841;-58
2023/09/18 13:01:07;;;;;;;10.93;5.83;;;;;;;;;;5029954;28;20508;-60
2023/09/18 13:03:35;;;;;;;9.93;5.37;;;;;;;;;;5029952;28;20906;-58
2023/09/18 13:06:09;;;;;;;10.10;6.10;;;;;;;;;;5029795;28;20537;-58
2023/09/18 13:08:36;;;;;;;15.37;5.43;;;;;;;;;;5031699;28;20984;-57
2023/09/18 13:11:04;;;;;;;17.20;5.30;;;;;;;;;;5030975;28;20509;-58
2023/09/18 13:13:31;;;;;;;12.77;5.70;;;;;;;;;;5033234;28;20449;-58
2023/09/18 13:15:59;;;;;;;10.87;4.60;;;;;;;;;;5033096;28;20465;-59
2023/09/18 13:18:28;;;;;;;9.90;5.50;;;;;;;;;;5032434;28;21006;-60
2023/09/18 13:20:55;;;;;;;11.03;5.40;;;;;;;;;;5031650;28;20442;-59
2023/09/18 13:23:29;;;;;;;10.40;5.40;;;;;;;;;;5033622;28;20507;-59
2023/09/18 13:26:00;;;;;;;6.63;3.90;;;;;;;;;;5032682;28;20883;-58
2023/09/18 13:28:27;;;;;;;14.00;4.57;;;;;;;;;;5033117;28;20903;-59
2023/09/18 13:30:54;;;;;;;15.10;4.53;;;;;;;;;;5033299;28;20845;-58
2023/09/18 13:33:23;;;;;;;12.00;3.70;;;;;;;;;;5033199;28;20474;-57
2023/09/18 13:35:52;;;;;;;9.57;3.53;;;;;;;;;;5031987;28;20512;-56
2023/09/18 13:38:21;;;;;;;6.47;3.13;;;;;;;;;;5032501;28;20553;-58
2023/09/18 13:40:49;;;;;;;15.90;3.43;;;;;;;;;;5033111;28;20442;-56
2023/09/18 13:43:18;;;;;;;5.47;3.10;;;;;;;;;;5032811;28;20470;-57
2023/09/18 13:45:46;;;;;;;7.40;3.03;;;;;;;;;;5032692;28;20879;-57
2023/09/18 13:48:15;;;;;;;6.87;3.43;;;;;;;;;;5032865;28;20469;-56
2023/09/18 13:50:42;;;;;;;5.97;2.60;;;;;;;;;;5032461;28;20607;-57
2023/09/18 13:53:11;;;;;;;8.10;2.60;;;;;;;;;;5032816;28;20508;-56
2023/09/18 13:55:38;;;;;;;5.40;2.57;;;;;;;;;;5032551;28;20442;-58
2023/09/18 13:58:05;;;;;;;6.13;2.00;;;;;;;;;;5032374;28;20923;-56
2023/09/18 14:00:33;;;;;;;5.67;1.57;;;;;;;;;;5032507;28;20500;-57
2023/09/18 14:03:02;;;;;;;3.33;1.50;;;;;;;;;;5032094;28;20537;-59
2023/09/18 14:05:31;;;;;;;3.80;1.50;;;;;;;;;;5032454;28;20449;-56
2023/09/18 14:07:59;;;;;;;7.50;1.90;;;;;;;;;;5032288;28;20470;-58
2023/09/18 14:10:28;;;;;;;5.90;1.27;;;;;;;;;;5031988;28;20530;-58
2023/09/18 14:12:57;;;;;;;3.80;1.30;;;;;;;;;;5031964;28;20870;-59
2023/09/18 14:15:24;;;;;;;5.03;1.10;;;;;;;;;;5031929;28;20496;-58
2023/09/18 14:17:51;;;;;;;3.20;0.90;;;;;;;;;;5031654;28;20557;-58
2023/09/18 14:20:19;;;;;;;2.33;1.10;;;;;;;;;;5031678;28;20474;-56
2023/09/18 14:22:49;;;;;;;2.23;0.70;;;;;;;;;;5032221;28;20470;-57
2023/09/18 14:25:16;;;;;;;3.20;0.70;;;;;;;;;;5032066;28;20828;-57
2023/09/18 14:27:45;;;;;;;2.27;0.67;;;;;;;;;;5031536;28;20497;-59
2023/09/18 14:30:13;;;;;;;1.90;0.60;;;;;;;;;;5031784;28;20470;-56
2023/09/18 14:32:41;;;;;;;2.73;0.70;;;;;;;;;;5032091;28;20482;-59
2023/09/18 14:35:09;;;;;;;2.00;0.70;;;;;;;;;;5031097;28;20956;-56
2023/09/18 14:37:36;;;;;;;2.20;0.90;;;;;;;;;;5031264;28;20466;-59
2023/09/18 14:40:03;;;;;;;2.40;0.70;;;;;;;;;;5031514;28;20863;-56
2023/09/18 14:42:30;;;;;;;3.53;0.73;;;;;;;;;;5031316;28;20921;-56
2023/09/18 14:45:01;;;;;;;1.60;0.60;;;;;;;;;;5029955;28;20473;-56
2023/09/18 14:47:28;;;;;;;7.17;1.13;;;;;;;;;;5030803;28;20474;-57
2023/09/18 14:49:55;;;;;;;4.43;1.00;;;;;;;;;;5030237;28;20528;-57